Terminal Aerodrome Forecast
Issued by NWS Grand Forks, ND

Home | Current Version | Previous Version | Graphics & Text | Print | Product List | Glossary On
Versions: 1 2 3 4 5 6 7 8 9 10 11 12 13 14 15 16 17 18
000
FTUS43 KFGF 261600 AAA
TAFGFK
TAF AMD
KGFK 261607Z 2616/2712 VRB03KT P6SM BKN025
      TEMPO 2616/2618 SCT025 BKN250
     FM261800 28005KT P6SM SCT035 BKN250
     FM270100 VRB03KT P6SM SKC=

USA.gov is the U.S. government's official web portal to all federal, state and local government web resources and services.